Airfield :
LOGIN :

Register | Disclaimer

   EN    FR    IT 

 










Legend :    VFR   Marginal VFR   IFR   Intensive IFR   Very Intensive IFR
Visi :
Ceiling :
>= 8 km
>= 3000ft
5 to 8 km
1000 to 3000 ft
1500m to 5 km
500 to 1000 ft
800 to 1500m
200 to 500 ft
< 800m
< 200 ft
Symbols :   Thunderstorms  Fog  Heavy snow  Heavy precipitations  Wind > 20 kt
SIGMETs :     Misc.  Thunderstorms  Icing  Turbulence  Mountain Waves  Volcanic Ashes







- Airport Elevation : 2945 ft
- IATA code : RGS


LEBG - Burgos

CURRENT METAR :
  • 212330Z AUTO 10003KT CAVOK M01/M02 Q1021

EXPIRED METARs :
  • 212300Z AUTO 00000KT CAVOK M01/M02 Q1021
  • 212230Z AUTO 09002KT 9999 FEW048 M01/M03 Q1021
  • 212200Z AUTO 00000KT 9999 FEW048 00/M02 Q1021
  • 212130Z AUTO 00000KT 9999 NCD 01/M02 Q1021
  • 212100Z AUTO 16004KT 110V190 9999 NCD 00/M02 Q1022
  • 212030Z AUTO VRB02KT 9999 BKN039/// 01/M01 Q1022

TAF TAF LEBG
Valid from the 21 at 18:00 until the 22 at 03:00 UTC


211700Z 2118/2203 36013KT 9999 SCT025 BKN040
PROB30
TEMPO 2121/2203 3500 BR BKN007
No reported NOTAMs for that airfield.



MET'MAP, your aeronautical weather chart ! - Copyright ORBIFLY December 2007 - Disclaimer

ORBIFLY MET'MAP TEAM :

Programming & Development : Alexandra Zaïnal
Concept & Development : Baudouin d'Aumeries
Co-Development & Prog : Marc-Olivier Méhu
Technical & hardware support : Manuel Goepfert

Contact : metmap@orbifly.com




SOURCES & CREDITS :

   NOAA